עמוד ראשי
METAR-TAF:

METAR-TAF

שדות תעופה :

Lahaina, הוואי, ארצות הברית

קו רוחב: 21-01N, קו אורך: 156-38W, גובה: 40מטר

METAR: חסר

זמן: 00:41 (10:41 UTC)

תחזית

הדו"ח נערך לפני 11 שעות ו 21דקות, בשעה 23:20 UTC
תחזית בתוקף מ 15 ב 00 UTC עד 15 ב 24 UTC
רוח 14קשר מכיוון מזרח/צפון-מזרח
ראות: 10קילומטר
עננים בינוניים בגובה 3500רגל
עננים בינוניים בגובה 4500רגל

TAF: PHJH 142320Z 1500/1524 07014KT P6SM BKN035 BKN045

תצפיות ותחזיות מזג אוויר לגבי יותר מ- 4,000 שדות תעופה ברחבי העולם. דוחות METAR ו- TAF.

התחנות הזמינות מסומנות בנקודות צהובות ואדומות על גבי המפה.

העבר את העכבר לנקודה הצבעונית על מנת לראות את שם התחנה.

לאחר מכן, לחץ כדי לראות את תוכן ואת תחזיות מזג האוויר.

כדי לשנות את המפה: לחץ על הכפתורים הירוקים עם הפלוס השחור כדי להתקרב; על הכפתור הירוק עם המקף כדי להתרחק; או בחיצים הירוקים למפות סמוכות.


METAR-TAF: